Time;durP1;ratioP1;P1;durP2;ratioP2;P2;SDS_P1;SDS_P2;PMS_P1;PMS_P2;Temp;Humidity;BMP_temperature;BMP_pressure;BME280_temperature;BME280_humidity;BME280_pressure;Samples;Min_cycle;Max_cycle;Signal;HPM_P1;HPM_P2
2023/06/05 00:02:12;;;;;;;10.60;6.78;;;10.20;99.90;;;;;;4969226;28;20185;-74
2023/06/05 00:04:39;;;;;;;10.52;6.40;;;10.20;99.90;;;;;;4987256;28;20658;-73
2023/06/05 00:07:05;;;;;;;9.20;6.13;;;10.20;99.90;;;;;;4972670;28;20423;-74
2023/06/05 00:09:31;;;;;;;14.05;6.80;;;10.10;99.90;;;;;;4985638;28;20055;-73
2023/06/05 00:11:57;;;;;;;9.38;6.32;;;10.10;99.90;;;;;;4984076;28;20443;-74
2023/06/05 00:14:23;;;;;;;8.73;6.15;;;10.10;99.90;;;;;;4987665;28;20078;-73
2023/06/05 00:16:51;;;;;;;10.65;6.75;;;10.10;99.90;;;;;;4986850;28;20042;-74
2023/06/05 00:19:17;;;;;;;11.27;6.28;;;10.00;99.90;;;;;;4979907;28;20133;-74
2023/06/05 00:21:42;;;;;;;10.32;6.97;;;10.00;99.90;;;;;;4986396;28;20240;-74
2023/06/05 00:24:08;;;;;;;11.23;6.20;;;10.00;99.90;;;;;;4986417;28;20054;-73
2023/06/05 00:26:34;;;;;;;9.90;5.65;;;10.00;99.90;;;;;;4970899;28;20262;-74
2023/06/05 00:29:00;;;;;;;9.40;6.00;;;9.90;99.90;;;;;;4985134;28;20035;-74
2023/06/05 00:31:26;;;;;;;9.10;6.10;;;9.90;99.90;;;;;;4987708;28;20074;-75
2023/06/05 00:33:51;;;;;;;12.98;7.07;;;9.90;99.90;;;;;;4970070;28;20469;-74
2023/06/05 00:36:18;;;;;;;9.60;6.38;;;9.90;99.90;;;;;;4988503;28;20134;-73
2023/06/05 00:38:45;;;;;;;10.50;6.35;;;9.90;99.90;;;;;;4966379;28;20047;-74
2023/06/05 00:41:11;;;;;;;10.63;6.90;;;9.90;99.90;;;;;;5018826;28;20048;-74
2023/06/05 00:43:37;;;;;;;10.27;7.00;;;9.90;99.90;;;;;;4971233;28;20054;-74
2023/06/05 00:46:04;;;;;;;10.13;7.05;;;9.80;99.90;;;;;;5002923;28;20562;-74
2023/06/05 00:48:32;;;;;;;10.75;7.18;;;9.80;99.90;;;;;;4986536;28;20403;-74
2023/06/05 00:50:58;;;;;;;12.63;6.25;;;9.80;99.90;;;;;;4985985;28;20049;-73
2023/06/05 00:53:25;;;;;;;9.57;6.53;;;9.80;99.90;;;;;;4988534;28;20364;-74
2023/06/05 00:55:51;;;;;;;11.60;6.22;;;9.70;99.90;;;;;;4971045;28;20046;-74
2023/06/05 00:58:17;;;;;;;10.27;6.32;;;9.70;99.90;;;;;;4984568;28;20042;-74
2023/06/05 01:00:45;;;;;;;8.70;6.47;;;9.70;99.90;;;;;;4987831;28;20046;-74
2023/06/05 01:03:12;;;;;;;12.45;7.03;;;9.70;99.90;;;;;;4984353;28;20406;-73
2023/06/05 01:05:38;;;;;;;12.02;6.95;;;9.70;99.90;;;;;;4987377;28;20041;-73
2023/06/05 01:08:05;;;;;;;13.25;7.00;;;9.70;99.90;;;;;;4986471;28;20038;-73
2023/06/05 01:10:31;;;;;;;9.02;6.35;;;9.60;99.90;;;;;;4985090;28;20041;-74
2023/06/05 01:13:00;;;;;;;11.07;6.30;;;9.60;99.90;;;;;;4985285;28;20046;-74
2023/06/05 01:15:29;;;;;;;10.75;7.15;;;9.60;99.90;;;;;;4985444;28;20335;-74
2023/06/05 01:17:58;;;;;;;10.05;7.20;;;9.50;99.90;;;;;;4971947;28;20050;-75
2023/06/05 01:20:34;;;;;;;12.20;6.75;;;9.60;99.90;;;;;;4984116;28;20061;-73
2023/06/05 01:23:02;;;;;;;12.07;6.85;;;9.50;99.90;;;;;;4972568;28;20138;-73
2023/06/05 01:25:29;;;;;;;13.60;7.97;;;9.50;99.90;;;;;;4985251;28;20041;-73
2023/06/05 01:28:05;;;;;;;12.57;8.15;;;9.50;99.90;;;;;;4986718;28;20046;-73
2023/06/05 01:30:44;;;;;;;10.05;6.82;;;9.50;99.90;;;;;;4981877;28;20394;-73
2023/06/05 01:33:41;;;;;;;13.30;8.20;;;9.50;99.90;;;;;;4986978;28;20129;-73
2023/06/05 01:36:10;;;;;;;10.38;7.10;;;9.50;99.90;;;;;;4984589;28;20077;-73
2023/06/05 01:38:36;;;;;;;12.48;8.45;;;9.50;99.90;;;;;;4987453;28;20050;-73
2023/06/05 01:41:03;;;;;;;13.02;8.07;;;9.40;99.90;;;;;;4985864;28;20164;-73
2023/06/05 01:43:30;;;;;;;9.65;7.80;;;9.40;99.90;;;;;;4987475;28;20512;-73
2023/06/05 01:45:58;;;;;;;13.85;7.70;;;9.40;99.90;;;;;;4969976;28;20447;-73
2023/06/05 01:48:28;;;;;;;14.43;8.93;;;9.40;99.90;;;;;;4965167;28;20043;-73
2023/06/05 01:50:58;;;;;;;10.27;8.30;;;9.40;99.90;;;;;;4985510;28;20139;-73
2023/06/05 01:53:24;;;;;;;12.50;7.85;;;9.30;99.90;;;;;;4971349;28;20173;-73
2023/06/05 01:55:56;;;;;;;12.50;8.88;;;9.30;99.90;;;;;;4982100;28;20082;-73
2023/06/05 01:58:26;;;;;;;12.15;9.32;;;9.20;99.90;;;;;;4986421;28;20108;-73
2023/06/05 02:00:53;;;;;;;10.30;9.27;;;9.30;99.90;;;;;;4982850;28;20057;-73
2023/06/05 02:03:20;;;;;;;14.57;9.15;;;9.30;99.90;;;;;;4982990;28;20452;-73
2023/06/05 02:05:46;;;;;;;11.63;9.27;;;9.30;99.90;;;;;;4988021;28;20049;-73
2023/06/05 02:08:13;;;;;;;13.50;9.30;;;9.30;99.90;;;;;;4967296;28;20043;-73
2023/06/05 02:10:43;;;;;;;10.90;8.55;;;9.30;99.90;;;;;;4985121;28;20120;-73
2023/06/05 02:13:10;;;;;;;14.93;9.10;;;9.30;99.90;;;;;;4970070;28;20041;-73
2023/06/05 02:15:36;;;;;;;15.82;9.10;;;9.30;99.90;;;;;;4983195;28;20509;-73
2023/06/05 02:18:04;;;;;;;10.27;9.18;;;9.30;99.90;;;;;;4981882;28;20030;-74
2023/06/05 02:20:30;;;;;;;13.35;9.30;;;9.30;99.90;;;;;;4984257;28;20487;-73
2023/06/05 02:22:56;;;;;;;15.40;10.10;;;9.30;99.90;;;;;;5011809;28;20061;-74
2023/06/05 02:25:26;;;;;;;13.07;9.00;;;9.30;99.90;;;;;;4985291;28;20038;-73
2023/06/05 02:27:53;;;;;;;12.85;9.52;;;9.30;99.90;;;;;;4986966;28;20074;-73
2023/06/05 02:30:19;;;;;;;12.45;8.95;;;9.30;99.90;;;;;;4975051;28;20045;-73
2023/06/05 02:32:46;;;;;;;12.85;9.70;;;9.30;99.90;;;;;;4972335;28;20038;-73
2023/06/05 02:35:13;;;;;;;12.85;9.38;;;9.30;99.90;;;;;;4990640;28;20057;-73
2023/06/05 02:37:49;;;;;;;14.70;9.13;;;9.40;99.90;;;;;;4973468;28;20038;-73
2023/06/05 02:40:14;;;;;;;13.07;8.70;;;9.40;99.90;;;;;;5016439;28;20070;-75
2023/06/05 02:42:41;;;;;;;11.63;8.73;;;9.40;99.90;;;;;;4988945;28;20472;-73
2023/06/05 02:45:08;;;;;;;12.73;10.10;;;9.40;99.90;;;;;;4990736;28;20081;-73
2023/06/05 02:47:34;;;;;;;11.45;9.68;;;9.40;99.90;;;;;;4990738;28;20034;-73
2023/06/05 02:50:01;;;;;;;15.65;10.20;;;9.40;99.90;;;;;;4990803;28;20038;-72
2023/06/05 02:52:32;;;;;;;12.57;9.30;;;9.40;99.90;;;;;;4989294;28;20064;-74
2023/06/05 02:54:57;;;;;;;13.38;9.23;;;9.40;99.90;;;;;;4989849;28;20121;-73
2023/06/05 02:57:23;;;;;;;13.30;9.02;;;9.40;99.90;;;;;;5003123;28;20136;-73
2023/06/05 02:59:49;;;;;;;13.35;9.07;;;9.40;99.90;;;;;;4990419;28;20046;-73
2023/06/05 03:02:15;;;;;;;12.43;9.95;;;9.40;99.90;;;;;;4987114;28;20194;-74
2023/06/05 03:04:42;;;;;;;11.68;9.20;;;9.50;99.90;;;;;;4974788;28;20531;-73
2023/06/05 03:07:09;;;;;;;12.30;10.20;;;9.40;99.90;;;;;;4989511;28;20034;-73
2023/06/05 03:09:36;;;;;;;12.35;9.73;;;9.50;99.90;;;;;;4987166;28;20457;-73
2023/06/05 03:12:02;;;;;;;14.07;9.10;;;9.40;99.90;;;;;;4988108;28;20078;-73
2023/06/05 03:14:27;;;;;;;15.38;9.65;;;9.40;99.90;;;;;;4986283;28;20520;-74
2023/06/05 03:16:53;;;;;;;18.75;10.07;;;9.40;99.90;;;;;;5002667;28;20545;-73
2023/06/05 03:19:19;;;;;;;13.98;9.95;;;9.40;99.90;;;;;;4984523;28;20050;-73
2023/06/05 03:21:45;;;;;;;14.10;10.35;;;9.40;99.90;;;;;;4986379;28;20082;-73
2023/06/05 03:24:14;;;;;;;13.63;9.10;;;9.40;99.90;;;;;;4988682;28;20086;-73
2023/06/05 03:26:40;;;;;;;13.13;10.20;;;9.40;99.90;;;;;;4984520;28;20105;-73
2023/06/05 03:29:07;;;;;;;15.55;10.43;;;9.40;99.90;;;;;;4981636;28;20042;-75
2023/06/05 03:31:33;;;;;;;12.73;10.30;;;9.40;99.90;;;;;;5019621;28;20046;-73
2023/06/05 03:33:59;;;;;;;12.98;10.18;;;9.40;99.90;;;;;;4985938;28;20051;-73
2023/06/05 03:36:27;;;;;;;12.82;9.98;;;9.40;99.90;;;;;;4984478;28;20717;-73
2023/06/05 03:38:53;;;;;;;13.85;9.63;;;9.40;99.90;;;;;;4987905;28;20046;-73
2023/06/05 03:41:19;;;;;;;12.82;9.85;;;9.40;99.90;;;;;;4970692;28;20449;-73
2023/06/05 03:43:46;;;;;;;10.88;9.50;;;9.40;99.90;;;;;;4987470;28;20043;-74
2023/06/05 03:46:17;;;;;;;13.45;9.55;;;9.40;99.90;;;;;;4975522;28;20053;-73
2023/06/05 03:48:43;;;;;;;12.27;8.60;;;9.50;99.90;;;;;;4984873;28;20111;-73
2023/06/05 03:51:09;;;;;;;13.48;9.40;;;9.50;99.90;;;;;;4990663;28;20130;-73
2023/06/05 03:53:39;;;;;;;13.57;9.48;;;9.50;99.90;;;;;;4985559;28;20142;-74
2023/06/05 03:56:08;;;;;;;11.13;9.48;;;9.50;99.90;;;;;;4986764;28;20043;-73
2023/06/05 03:58:35;;;;;;;11.73;8.27;;;9.50;99.90;;;;;;4981094;28;20054;-73
2023/06/05 04:01:00;;;;;;;10.52;9.02;;;9.60;99.90;;;;;;4990070;28;20042;-72
2023/06/05 04:03:27;;;;;;;12.82;9.85;;;9.60;99.90;;;;;;4988855;28;20492;-73
2023/06/05 04:05:53;;;;;;;15.00;9.85;;;9.60;99.90;;;;;;4987993;28;20081;-73
2023/06/05 04:08:18;;;;;;;14.32;10.75;;;9.60;99.90;;;;;;4988152;28;20038;-73
2023/06/05 04:10:44;;;;;;;14.73;10.85;;;9.70;99.90;;;;;;4989152;28;20054;-78
2023/06/05 04:13:10;;;;;;;14.77;10.45;;;9.60;99.90;;;;;;4988076;28;20043;-74
2023/06/05 04:15:36;;;;;;;14.80;10.38;;;9.60;99.90;;;;;;4973819;28;20057;-74
2023/06/05 04:18:03;;;;;;;11.70;10.50;;;9.60;99.90;;;;;;5018318;28;20113;-74
2023/06/05 04:20:28;;;;;;;12.85;10.32;;;9.60;99.90;;;;;;4971356;28;20065;-74
2023/06/05 04:22:54;;;;;;;14.80;10.70;;;9.70;99.90;;;;;;4988852;28;20434;-74
2023/06/05 04:25:20;;;;;;;12.40;10.27;;;9.70;99.90;;;;;;4970330;28;20071;-74
2023/06/05 04:27:50;;;;;;;14.50;10.20;;;9.70;99.90;;;;;;4985976;28;20545;-74
2023/06/05 04:30:16;;;;;;;13.35;10.13;;;9.70;99.90;;;;;;4968674;28;20073;-74
2023/06/05 04:32:41;;;;;;;11.82;9.82;;;9.80;99.90;;;;;;4988209;28;20490;-74
2023/06/05 04:35:10;;;;;;;11.93;10.07;;;9.80;99.90;;;;;;4988412;28;20073;-73
2023/06/05 04:37:37;;;;;;;12.30;9.88;;;9.90;99.90;;;;;;4986794;28;20646;-73
2023/06/05 04:40:09;;;;;;;11.77;9.60;;;10.00;99.90;;;;;;4972516;28;20038;-73
2023/06/05 04:42:36;;;;;;;10.80;8.93;;;10.00;99.90;;;;;;4991715;28;20084;-73
2023/06/05 04:45:04;;;;;;;10.68;9.63;;;10.10;99.90;;;;;;4991413;28;20041;-73
2023/06/05 04:47:31;;;;;;;12.10;9.52;;;10.10;99.90;;;;;;4989547;28;20590;-73
2023/06/05 04:50:05;;;;;;;12.93;9.55;;;10.30;99.90;;;;;;4975570;28;20135;-74
2023/06/05 04:52:39;;;;;;;11.68;9.23;;;10.40;99.90;;;;;;4992060;28;20390;-73
2023/06/05 04:55:06;;;;;;;11.98;8.70;;;10.50;99.90;;;;;;4983333;28;20125;-74
2023/06/05 04:57:32;;;;;;;9.98;8.93;;;10.80;99.90;;;;;;4989384;28;20042;-74
2023/06/05 04:59:57;;;;;;;11.05;8.75;;;11.20;99.90;;;;;;4992400;28;20508;-74
2023/06/05 05:02:24;;;;;;;12.35;9.00;;;11.50;99.90;;;;;;4988995;28;20136;-74
2023/06/05 05:04:49;;;;;;;10.82;8.88;;;11.80;99.90;;;;;;4991353;28;20064;-74
2023/06/05 05:07:16;;;;;;;9.95;8.60;;;12.00;99.90;;;;;;4984679;28;20422;-75
2023/06/05 05:09:46;;;;;;;11.57;8.63;;;12.00;99.90;;;;;;4990161;28;20041;-74
2023/06/05 05:12:11;;;;;;;12.77;8.02;;;12.20;99.90;;;;;;4987814;28;20057;-74
2023/06/05 05:14:38;;;;;;;10.25;9.10;;;12.30;99.90;;;;;;4975800;28;20038;-74
2023/06/05 05:17:04;;;;;;;9.85;7.85;;;12.40;99.90;;;;;;4968884;28;20046;-74
2023/06/05 05:19:30;;;;;;;8.40;7.50;;;12.40;99.90;;;;;;4989645;28;20519;-74
2023/06/05 05:21:55;;;;;;;7.65;6.70;;;12.20;99.90;;;;;;4989408;28;20129;-74
2023/06/05 05:24:22;;;;;;;7.88;7.07;;;12.20;99.90;;;;;;4990151;28;20108;-75
2023/06/05 05:26:50;;;;;;;6.85;6.15;;;12.10;99.90;;;;;;4988714;28;20101;-75
2023/06/05 05:29:16;;;;;;;7.25;6.43;;;12.10;99.90;;;;;;4976313;28;20514;-74
2023/06/05 05:31:41;;;;;;;8.55;5.80;;;12.00;99.90;;;;;;4991435;28;20053;-74
2023/06/05 05:34:07;;;;;;;7.60;6.43;;;12.00;99.90;;;;;;4988793;28;20038;-73
2023/06/05 05:36:33;;;;;;;7.07;6.05;;;12.00;99.90;;;;;;4991087;28;20042;-73
2023/06/05 05:38:59;;;;;;;6.68;6.07;;;12.00;99.90;;;;;;4990733;28;20041;-72
2023/06/05 05:41:25;;;;;;;7.13;5.75;;;11.90;99.90;;;;;;4990347;28;20151;-73
2023/06/05 05:43:51;;;;;;;8.57;6.50;;;12.00;99.90;;;;;;4984718;28;20054;-72
2023/06/05 05:46:16;;;;;;;7.63;6.85;;;12.10;99.90;;;;;;4985222;28;20495;-77
2023/06/05 05:48:42;;;;;;;7.82;6.63;;;12.20;99.90;;;;;;4984350;28;20046;-77
2023/06/05 05:51:08;;;;;;;6.82;6.00;;;12.20;99.90;;;;;;4986245;28;20513;-73
2023/06/05 05:53:34;;;;;;;7.88;6.30;;;12.30;99.90;;;;;;4982290;28;20066;-77
2023/06/05 05:56:00;;;;;;;6.32;5.68;;;12.30;99.90;;;;;;4985983;28;20096;-78
2023/06/05 05:58:26;;;;;;;7.60;6.25;;;12.40;99.90;;;;;;4965753;28;20639;-77
2023/06/05 06:00:52;;;;;;;8.50;6.28;;;12.40;99.90;;;;;;4991246;28;20088;-79
2023/06/05 06:03:19;;;;;;;7.82;5.78;;;12.50;99.90;;;;;;4987384;28;20050;-71
2023/06/05 06:05:47;;;;;;;6.75;6.03;;;12.50;99.90;;;;;;4974039;28;20101;-73
2023/06/05 06:08:13;;;;;;;7.00;6.40;;;12.60;99.90;;;;;;4974186;28;20072;-72
2023/06/05 06:10:40;;;;;;;8.20;6.40;;;12.70;99.90;;;;;;4986615;28;20109;-73
2023/06/05 06:13:07;;;;;;;7.68;6.53;;;12.70;99.90;;;;;;4987339;28;20053;-73
2023/06/05 06:15:33;;;;;;;7.40;6.68;;;12.80;99.90;;;;;;5003576;28;20069;-72
2023/06/05 06:18:02;;;;;;;6.53;5.70;;;12.90;99.90;;;;;;4998926;28;20469;-73
2023/06/05 06:20:28;;;;;;;7.20;5.90;;;12.90;99.90;;;;;;4991629;28;20057;-72
2023/06/05 06:22:54;;;;;;;6.47;5.88;;;13.00;99.90;;;;;;4985299;28;20054;-72
2023/06/05 06:25:20;;;;;;;8.23;6.45;;;13.10;99.90;;;;;;4988409;28;20033;-72
2023/06/05 06:27:48;;;;;;;7.43;5.57;;;13.10;99.90;;;;;;4990914;28;20046;-72
2023/06/05 06:30:14;;;;;;;6.30;5.53;;;13.20;99.90;;;;;;4990049;28;20137;-72
2023/06/05 06:32:40;;;;;;;7.60;6.18;;;13.40;99.90;;;;;;4989172;28;20046;-72
2023/06/05 06:35:07;;;;;;;6.93;5.70;;;13.40;99.90;;;;;;4988163;28;20122;-73
2023/06/05 06:37:33;;;;;;;6.85;5.20;;;13.50;99.90;;;;;;4991572;28;20038;-71
2023/06/05 06:39:59;;;;;;;7.75;5.78;;;13.60;99.90;;;;;;4974644;28;20047;-72
2023/06/05 06:42:26;;;;;;;7.75;6.38;;;13.70;99.90;;;;;;4992550;28;20262;-72
2023/06/05 06:44:55;;;;;;;7.43;5.70;;;13.80;99.90;;;;;;4989735;28;20042;-73
2023/06/05 06:47:22;;;;;;;5.30;4.80;;;13.90;99.90;;;;;;4975335;28;20504;-73
2023/06/05 06:49:48;;;;;;;7.65;5.10;;;14.00;99.90;;;;;;4994319;28;20156;-72
2023/06/05 06:52:14;;;;;;;5.50;4.80;;;14.00;99.90;;;;;;4993901;28;20046;-71
2023/06/05 06:54:40;;;;;;;5.40;4.90;;;14.10;99.90;;;;;;4991714;28;20213;-71
2023/06/05 06:57:06;;;;;;;6.28;5.13;;;14.10;99.90;;;;;;4990836;28;21029;-72
2023/06/05 06:59:32;;;;;;;4.97;4.47;;;14.10;99.90;;;;;;4994506;28;20485;-71
2023/06/05 07:02:14;;;;;;;5.38;4.53;;;14.00;99.90;;;;;;4990471;28;20069;-72
2023/06/05 07:04:41;;;;;;;6.68;4.72;;;14.00;99.90;;;;;;4991770;28;20548;-71
2023/06/05 07:07:12;;;;;;;6.57;5.05;;;14.00;99.90;;;;;;4988856;28;20057;-72
2023/06/05 07:09:39;;;;;;;5.97;3.88;;;14.20;99.90;;;;;;5019145;28;20095;-71
2023/06/05 07:12:06;;;;;;;5.88;3.53;;;14.40;99.90;;;;;;4989460;28;22104;-72
2023/06/05 07:14:35;;;;;;;5.78;3.08;;;14.70;99.90;;;;;;4990521;28;20042;-71
2023/06/05 07:17:01;;;;;;;4.80;3.30;;;14.80;99.90;;;;;;4989102;28;20038;-71
2023/06/05 07:19:31;;;;;;;4.65;2.95;;;14.80;99.90;;;;;;4990443;28;20052;-72
2023/06/05 07:21:58;;;;;;;5.43;3.50;;;14.80;99.90;;;;;;4992145;28;20517;-71
2023/06/05 07:24:25;;;;;;;7.70;3.58;;;14.80;99.90;;;;;;4973335;28;20046;-72
2023/06/05 07:26:55;;;;;;;2.65;2.33;;;14.80;99.90;;;;;;4989472;28;20049;-71
2023/06/05 07:29:25;;;;;;;4.55;3.15;;;14.90;99.90;;;;;;4993564;28;20037;-71
2023/06/05 07:31:52;;;;;;;4.28;3.25;;;15.10;99.90;;;;;;4992867;28;20061;-71
2023/06/05 07:34:19;;;;;;;2.95;2.58;;;15.20;99.90;;;;;;4992886;28;20394;-71
2023/06/05 07:36:46;;;;;;;3.38;2.85;;;15.40;99.90;;;;;;4993780;28;20649;-70
2023/06/05 07:39:13;;;;;;;6.13;3.20;;;15.50;99.90;;;;;;4990207;28;20164;-69
2023/06/05 07:41:41;;;;;;;5.07;3.60;;;15.50;99.90;;;;;;4992996;28;20275;-70
2023/06/05 07:44:12;;;;;;;4.15;3.22;;;15.60;99.90;;;;;;4992727;28;20524;-71
2023/06/05 07:46:42;;;;;;;3.92;3.00;;;15.80;99.90;;;;;;4993107;28;20228;-71
2023/06/05 07:49:09;;;;;;;3.20;2.70;;;15.90;99.90;;;;;;4991777;28;20476;-70
2023/06/05 07:51:38;;;;;;;5.68;3.28;;;16.00;99.90;;;;;;4993880;28;20042;-72
2023/06/05 07:54:06;;;;;;;4.35;2.72;;;15.80;99.90;;;;;;4976749;28;20042;-70
2023/06/05 07:56:33;;;;;;;4.82;3.03;;;15.90;99.90;;;;;;4986346;28;20125;-71
2023/06/05 07:59:02;;;;;;;3.83;2.67;;;16.00;99.90;;;;;;4988184;28;20038;-75
2023/06/05 08:01:36;;;;;;;5.32;2.30;;;16.00;99.90;;;;;;4977466;28;20056;-74
2023/06/05 08:04:07;;;;;;;8.45;3.10;;;16.00;99.90;;;;;;4988923;28;20085;-74
2023/06/05 08:06:33;;;;;;;4.68;3.20;;;16.10;99.90;;;;;;4993003;28;20033;-73
2023/06/05 08:09:02;;;;;;;3.33;2.45;;;16.20;99.90;;;;;;4989939;28;20042;-74
2023/06/05 08:11:28;;;;;;;3.30;2.90;;;16.30;99.90;;;;;;4992954;28;20050;-74
2023/06/05 08:13:55;;;;;;;4.28;3.08;;;16.50;99.90;;;;;;4989105;28;20488;-74
2023/06/05 08:16:21;;;;;;;4.13;3.42;;;16.60;99.90;;;;;;4992971;28;20041;-73
2023/06/05 08:18:47;;;;;;;4.63;3.20;;;16.70;99.90;;;;;;4988812;28;20107;-72
2023/06/05 08:21:13;;;;;;;3.85;3.00;;;16.70;99.90;;;;;;4991714;28;20073;-72
2023/06/05 08:23:39;;;;;;;5.10;2.92;;;16.90;99.90;;;;;;4989803;28;20045;-72
2023/06/05 08:26:10;;;;;;;4.05;2.97;;;17.00;99.90;;;;;;4988866;28;20038;-72
2023/06/05 08:28:41;;;;;;;3.65;3.20;;;17.00;99.90;;;;;;4987414;28;20053;-73
2023/06/05 08:31:10;;;;;;;3.15;2.47;;;17.10;99.90;;;;;;4993217;28;20521;-73
2023/06/05 08:33:37;;;;;;;3.33;2.45;;;17.20;99.90;;;;;;4975782;28;20168;-72
2023/06/05 08:36:05;;;;;;;3.78;3.05;;;17.30;99.90;;;;;;4992917;28;20081;-70
2023/06/05 08:38:32;;;;;;;3.20;2.30;;;17.40;99.90;;;;;;4985398;28;20050;-71
2023/06/05 08:41:05;;;;;;;4.07;2.83;;;17.50;99.90;;;;;;4992206;28;20100;-72
2023/06/05 08:43:31;;;;;;;7.18;2.97;;;17.70;99.90;;;;;;4989555;28;20041;-73
2023/06/05 08:45:57;;;;;;;3.72;2.67;;;17.80;99.90;;;;;;4992903;28;20076;-72
2023/06/05 08:48:25;;;;;;;4.40;2.63;;;18.00;99.90;;;;;;4986030;28;20116;-72
2023/06/05 08:50:51;;;;;;;3.72;2.47;;;17.90;99.90;;;;;;4976579;28;20133;-73
2023/06/05 08:53:20;;;;;;;2.90;2.60;;;17.90;99.90;;;;;;4987153;28;20430;-72
2023/06/05 08:55:47;;;;;;;3.25;2.78;;;18.10;99.90;;;;;;4990998;28;20121;-73
2023/06/05 08:58:13;;;;;;;4.00;2.72;;;18.30;99.90;;;;;;4985367;28;20038;-72
2023/06/05 09:00:40;;;;;;;3.75;2.17;;;18.50;99.90;;;;;;4987568;28;20038;-72
2023/06/05 09:03:06;;;;;;;2.65;2.13;;;18.50;99.90;;;;;;4988063;28;20050;-72
2023/06/05 09:05:32;;;;;;;2.53;2.20;;;18.60;99.90;;;;;;4992297;28;20045;-72
2023/06/05 09:07:58;;;;;;;4.22;2.00;;;18.80;99.90;;;;;;4988557;28;20048;-73
2023/06/05 09:10:29;;;;;;;5.10;2.20;;;18.90;99.90;;;;;;4990657;28;20425;-72
2023/06/05 09:12:58;;;;;;;3.50;2.22;;;19.10;99.90;;;;;;5020259;28;20379;-74
2023/06/05 09:15:26;;;;;;;3.90;2.55;;;19.50;99.90;;;;;;4991327;28;20112;-72
2023/06/05 09:18:14;;;;;;;2.65;2.05;;;19.70;99.90;;;;;;4990440;28;20042;-73
2023/06/05 09:20:48;;;;;;;2.60;2.40;;;19.70;99.50;;;;;;5006323;28;20418;-73
2023/06/05 09:23:26;;;;;;;;;;;19.50;99.90;;;;;;4988075;28;20076;-73
2023/06/05 09:25:53;;;;;;;3.05;2.30;;;19.40;99.40;;;;;;4990944;28;20385;-72
2023/06/05 09:28:19;;;;;;;3.35;2.25;;;19.60;99.90;;;;;;4990231;28;20030;-73
2023/06/05 09:31:04;;;;;;;2.80;1.85;;;19.70;99.90;;;;;;4975523;28;20030;-73
2023/06/05 09:33:33;;;;;;;2.53;2.00;;;20.20;99.90;;;;;;4987064;28;20255;-73
2023/06/05 09:36:05;;;;;;;3.72;1.98;;;20.60;99.90;;;;;;4991704;28;20128;-74
2023/06/05 09:38:31;;;;;;;3.50;2.00;;;20.70;98.30;;;;;;4989513;28;20038;-73
2023/06/05 09:41:10;;;;;;;3.83;2.03;;;20.50;97.50;;;;;;4990464;28;20050;-73
2023/06/05 09:43:38;;;;;;;4.57;2.80;;;20.40;95.50;;;;;;4971354;28;20046;-73
2023/06/05 09:46:15;;;;;;;3.60;1.75;;;20.40;98.50;;;;;;4975562;28;20096;-73
2023/06/05 09:48:43;;;;;;;3.38;1.83;;;20.80;97.40;;;;;;4990216;28;20152;-73
2023/06/05 09:51:14;;;;;;;2.40;1.90;;;20.80;95.50;;;;;;4975205;28;20100;-72
2023/06/05 09:53:45;;;;;;;4.32;2.40;;;20.90;94.10;;;;;;4988014;28;20053;-72
2023/06/05 09:56:13;;;;;;;2.47;1.80;;;20.70;93.60;;;;;;4991472;28;20129;-72
2023/06/05 09:58:44;;;;;;;3.20;1.67;;;20.80;96.10;;;;;;4985236;28;20081;-72
2023/06/05 10:01:12;;;;;;;3.63;1.77;;;21.00;96.40;;;;;;4992305;28;20778;-72
2023/06/05 10:03:42;;;;;;;3.60;1.83;;;21.30;94.30;;;;;;4974022;28;20080;-73
2023/06/05 10:06:08;;;;;;;3.50;2.58;;;21.30;93.70;;;;;;4991064;28;20136;-74
2023/06/05 10:08:35;;;;;;;3.15;1.90;;;21.50;93.60;;;;;;4985306;28;20089;-72
2023/06/05 10:11:01;;;;;;;5.65;1.88;;;21.60;93.60;;;;;;4990842;28;20042;-72
2023/06/05 10:13:28;;;;;;;3.20;2.05;;;21.80;93.10;;;;;;4990459;28;20049;-73
2023/06/05 10:15:56;;;;;;;3.20;1.75;;;22.00;92.90;;;;;;4990725;28;20085;-72
2023/06/05 10:18:22;;;;;;;2.92;2.10;;;22.20;92.60;;;;;;4986933;28;20486;-73
2023/06/05 10:20:48;;;;;;;5.03;2.05;;;22.30;91.50;;;;;;5020874;28;20068;-73
2023/06/05 10:23:19;;;;;;;2.92;1.80;;;22.20;91.10;;;;;;4989661;28;20042;-74
2023/06/05 10:25:47;;;;;;;2.30;1.77;;;22.40;91.90;;;;;;4988057;28;20042;-72
2023/06/05 10:28:41;;;;;;;3.65;2.33;;;22.40;90.30;;;;;;4990793;28;20045;-71
2023/06/05 10:31:20;;;;;;;3.13;2.03;;;22.20;89.10;;;;;;4991346;28;20042;-72
2023/06/05 10:33:54;;;;;;;4.15;1.90;;;22.30;89.40;;;;;;4987754;28;20188;-74
2023/06/05 10:36:43;;;;;;;3.35;2.28;;;22.40;87.50;;;;;;4975745;28;20044;-72
2023/06/05 10:39:11;;;;;;;5.22;2.42;;;22.60;86.50;;;;;;4983768;28;20426;-75
2023/06/05 10:41:37;;;;;;;5.40;2.92;;;22.60;87.50;;;;;;4992160;28;20489;-73
2023/06/05 10:44:04;;;;;;;3.72;2.70;;;22.80;86.10;;;;;;4988640;28;20446;-72
2023/06/05 10:46:34;;;;;;;6.70;2.50;;;23.00;84.10;;;;;;4977248;28;20042;-72
2023/06/05 10:49:21;;;;;;;4.32;2.75;;;22.80;82.50;;;;;;4976281;28;20041;-74
2023/06/05 10:51:51;;;;;;;3.42;2.55;;;22.60;83.10;;;;;;4974589;28;20037;-73
2023/06/05 10:54:23;;;;;;;2.63;1.98;;;22.60;86.80;;;;;;4987706;28;20375;-73
2023/06/05 10:56:52;;;;;;;3.08;2.15;;;22.70;83.20;;;;;;4994114;28;20394;-73
2023/06/05 10:59:22;;;;;;;2.90;2.17;;;22.90;82.10;;;;;;4991532;28;20180;-73
2023/06/05 11:02:06;;;;;;;4.55;2.53;;;22.80;82.00;;;;;;4992262;28;20054;-73
2023/06/05 11:04:46;;;;;;;;;;;22.80;82.10;;;;;;4992600;28;20042;-72
2023/06/05 11:07:21;;;;;;;5.40;2.42;;;22.80;77.60;;;;;;5001987;28;19917;-74
2023/06/05 11:10:05;;;;;;;3.47;2.80;;;22.90;79.60;;;;;;4987109;28;20046;-73
2023/06/05 11:12:42;;;;;;;3.28;2.00;;;23.20;79.40;;;;;;4993480;28;20468;-72
2023/06/05 11:15:10;;;;;;;5.85;2.65;;;23.40;78.50;;;;;;4987240;28;20048;-71
2023/06/05 11:17:38;;;;;;;2.70;2.30;;;23.40;77.10;;;;;;4988592;28;20048;-71
2023/06/05 11:20:28;;;;;;;3.42;2.33;;;23.30;74.50;;;;;;4991494;28;20427;-72
2023/06/05 11:22:56;;;;;;;3.10;2.78;;;23.40;75.60;;;;;;4994017;28;20048;-72
2023/06/05 11:25:26;;;;;;;4.03;2.33;;;23.50;75.20;;;;;;4990941;28;20478;-72
2023/06/05 11:27:53;;;;;;;2.95;2.50;;;23.70;75.80;;;;;;4993653;28;20052;-71
2023/06/05 11:30:20;;;;;;;3.47;2.28;;;23.90;73.30;;;;;;4977681;28;20044;-72
2023/06/05 11:32:47;;;;;;;4.43;2.20;;;24.10;73.20;;;;;;4978150;28;20095;-71
2023/06/05 11:35:13;;;;;;;3.42;2.03;;;24.20;70.20;;;;;;4990473;28;20074;-71
2023/06/05 11:37:40;;;;;;;3.63;2.13;;;24.20;69.70;;;;;;4993778;28;20124;-72
2023/06/05 11:40:09;;;;;;;3.67;2.45;;;24.50;69.30;;;;;;4994217;28;20041;-73
2023/06/05 11:42:39;;;;;;;7.38;3.33;;;24.40;68.20;;;;;;4992224;28;20109;-71
2023/06/05 11:45:12;;;;;;;2.65;2.15;;;24.20;67.30;;;;;;4990556;28;20112;-71
2023/06/05 11:47:38;;;;;;;4.25;2.30;;;24.30;69.00;;;;;;4993445;28;20417;-71
2023/06/05 11:50:11;;;;;;;4.88;2.80;;;24.30;70.20;;;;;;4990906;28;20044;-72
2023/06/05 11:52:38;;;;;;;3.30;2.20;;;24.30;69.20;;;;;;4992384;28;20080;-71
2023/06/05 11:55:15;;;;;;;3.75;3.05;;;24.40;70.70;;;;;;4990903;28;20298;-72
2023/06/05 11:57:46;;;;;;;3.67;3.00;;;24.30;66.20;;;;;;4974744;28;20050;-71
2023/06/05 12:00:13;;;;;;;4.80;2.63;;;24.20;66.30;;;;;;4991744;28;20042;-72
2023/06/05 12:02:43;;;;;;;5.00;2.60;;;24.40;70.50;;;;;;4974199;28;20038;-72
2023/06/05 12:05:09;;;;;;;3.20;2.47;;;24.60;70.20;;;;;;4976238;28;20394;-72
2023/06/05 12:07:39;;;;;;;2.22;2.00;;;24.40;67.30;;;;;;4989087;28;20053;-72
2023/06/05 12:10:07;;;;;;;4.15;3.08;;;24.50;69.70;;;;;;4989965;28;20530;-71
2023/06/05 12:12:50;;;;;;;5.28;2.95;;;24.70;66.20;;;;;;4976290;28;20077;-72
2023/06/05 12:15:17;;;;;;;4.30;2.73;;;24.80;63.30;;;;;;4976179;28;20048;-72
2023/06/05 12:18:09;;;;;;;4.68;2.20;;;24.90;65.80;;;;;;4990719;28;20073;-71
2023/06/05 12:20:42;;;;;;;2.30;2.10;;;25.00;64.50;;;;;;5003732;28;20383;-71
2023/06/05 12:23:07;;;;;;;3.50;2.50;;;24.80;63.60;;;;;;4990907;28;20319;-70
2023/06/05 12:25:33;;;;;;;2.38;2.15;;;24.60;63.90;;;;;;5019007;28;20517;-71
2023/06/05 12:27:59;;;;;;;5.00;3.03;;;24.50;66.70;;;;;;4990658;28;20505;-71
2023/06/05 12:30:25;;;;;;;2.70;2.50;;;24.60;66.10;;;;;;4974816;28;20095;-71
2023/06/05 12:32:51;;;;;;;2.92;2.65;;;24.60;63.70;;;;;;4989556;28;20037;-72
2023/06/05 12:35:20;;;;;;;4.22;2.88;;;24.50;63.60;;;;;;4988728;28;20093;-71
2023/06/05 12:37:47;;;;;;;7.38;2.50;;;24.20;63.50;;;;;;4990756;28;20053;-72
2023/06/05 12:40:14;;;;;;;6.63;2.42;;;23.90;64.80;;;;;;4987211;28;20038;-72
2023/06/05 12:42:43;;;;;;;5.88;3.03;;;23.80;65.00;;;;;;4986943;28;20077;-71
2023/06/05 12:45:10;;;;;;;3.30;2.25;;;23.90;66.00;;;;;;4982987;28;20065;-71
2023/06/05 12:47:40;;;;;;;4.32;2.65;;;24.00;65.50;;;;;;4989437;28;20398;-71
2023/06/05 12:50:07;;;;;;;2.72;2.00;;;24.30;68.70;;;;;;4998955;28;20395;-71
2023/06/05 12:52:33;;;;;;;5.78;2.80;;;24.40;67.20;;;;;;4985272;28;20530;-70